Time;durP1;ratioP1;P1;durP2;ratioP2;P2;SDS_P1;SDS_P2;PMS_P1;PMS_P2;Temp;Humidity;BMP_temperature;BMP_pressure;BME280_temperature;BME280_humidity;BME280_pressure;Samples;Min_cycle;Max_cycle;Signal;HPM_P1;HPM_P2
2021/05/29 00:01:21;;;;;;;4.35;2.80;;;12.60;96.10;;;;;;5012998;28;20038;-50
2021/05/29 00:03:48;;;;;;;4.30;3.38;;;12.80;95.90;;;;;;5012952;28;20029;-54
2021/05/29 00:06:15;;;;;;;6.70;3.70;;;12.80;95.20;;;;;;5012850;28;20041;-52
2021/05/29 00:08:43;;;;;;;5.82;3.08;;;12.90;95.50;;;;;;5012652;28;20026;-52
2021/05/29 00:11:11;;;;;;;4.50;3.03;;;13.10;95.50;;;;;;5012714;28;20034;-54
2021/05/29 00:13:40;;;;;;;5.57;3.30;;;13.20;95.70;;;;;;5012780;28;20018;-52
2021/05/29 00:16:09;;;;;;;4.85;3.03;;;13.20;95.40;;;;;;5012820;28;20472;-53
2021/05/29 00:18:38;;;;;;;6.65;3.15;;;13.10;95.50;;;;;;5012384;28;20506;-53
2021/05/29 00:21:06;;;;;;;10.93;3.60;;;13.10;95.60;;;;;;5012553;28;20383;-50
2021/05/29 00:23:34;;;;;;;6.38;3.65;;;13.30;95.90;;;;;;5012500;28;20487;-53
2021/05/29 00:26:01;;;;;;;6.05;4.10;;;13.30;95.60;;;;;;5012761;28;20046;-53
2021/05/29 00:28:29;;;;;;;6.68;3.15;;;13.40;95.50;;;;;;5012650;28;20026;-53
2021/05/29 00:30:56;;;;;;;4.65;3.45;;;13.30;95.30;;;;;;5012566;28;20022;-48
2021/05/29 00:33:23;;;;;;;7.10;3.45;;;13.20;96.10;;;;;;5012797;28;20033;-50
2021/05/29 00:35:51;;;;;;;5.75;3.78;;;13.10;95.70;;;;;;5012683;28;20017;-47
2021/05/29 00:38:18;;;;;;;4.20;3.83;;;13.10;96.30;;;;;;5015831;28;20112;-52
2021/05/29 00:40:45;;;;;;;4.07;3.20;;;13.20;95.50;;;;;;5016017;28;20026;-51
2021/05/29 00:43:13;;;;;;;5.78;4.03;;;13.40;95.80;;;;;;5016044;28;20044;-54
2021/05/29 00:45:40;;;;;;;7.95;3.70;;;13.70;95.50;;;;;;5015924;28;20032;-48
2021/05/29 00:48:08;;;;;;;7.57;3.50;;;13.90;95.30;;;;;;5016069;28;20018;-53
2021/05/29 00:50:47;;;;;;;8.40;3.30;;;14.20;95.30;;;;;;5015790;28;20026;-51
2021/05/29 00:53:17;;;;;;;9.80;3.67;;;14.30;95.20;;;;;;5015830;28;20034;-51
2021/05/29 00:55:45;;;;;;;7.55;3.42;;;14.50;95.00;;;;;;5015853;28;20018;-52
2021/05/29 00:58:13;;;;;;;5.80;3.95;;;14.70;95.30;;;;;;5015331;28;20398;-48
2021/05/29 01:00:40;;;;;;;8.45;3.38;;;14.80;95.00;;;;;;5015871;28;20501;-52
2021/05/29 01:03:08;;;;;;;6.45;3.60;;;15.00;94.80;;;;;;5015800;28;20437;-53
2021/05/29 01:05:36;;;;;;;7.43;4.07;;;15.10;95.00;;;;;;5015548;28;20431;-53
2021/05/29 01:08:04;;;;;;;9.38;3.55;;;15.10;94.90;;;;;;5015648;28;20069;-55
2021/05/29 01:10:31;;;;;;;7.88;4.20;;;15.10;94.80;;;;;;5015664;28;20382;-47
2021/05/29 01:13:00;;;;;;;8.52;4.05;;;15.20;94.60;;;;;;5015459;28;20423;-52
2021/05/29 01:18:11;;;;;;;8.15;3.75;;;15.40;94.30;;;;;;5015522;28;20188;-52
2021/05/29 01:20:40;;;;;;;11.48;4.30;;;15.80;94.50;;;;;;5015525;28;20037;-51
2021/05/29 01:23:08;;;;;;;7.15;3.72;;;15.30;94.10;;;;;;5015255;28;20471;-52
2021/05/29 01:25:37;;;;;;;10.02;3.55;;;15.20;94.50;;;;;;5015530;28;20030;-53
2021/05/29 01:28:05;;;;;;;6.00;3.42;;;15.50;95.00;;;;;;5014732;28;20076;-54
2021/05/29 01:30:44;;;;;;;6.15;3.30;;;15.90;94.30;;;;;;5015163;28;20088;-49
2021/05/29 01:33:26;;;;;;;7.43;3.65;;;15.90;94.40;;;;;;5015185;28;20531;-53
2021/05/29 01:35:58;;;;;;;8.85;4.57;;;16.10;94.40;;;;;;5015303;28;20026;-52
2021/05/29 01:38:26;;;;;;;6.63;3.50;;;16.10;94.10;;;;;;5014905;28;20026;-52
2021/05/29 01:40:57;;;;;;;11.18;3.90;;;15.60;93.90;;;;;;5014871;28;20442;-52
2021/05/29 01:43:25;;;;;;;5.90;3.60;;;16.00;94.40;;;;;;5014972;28;20112;-51
2021/05/29 01:45:52;;;;;;;8.00;3.65;;;16.10;93.90;;;;;;5015105;28;20049;-52
2021/05/29 01:48:21;;;;;;;9.27;4.25;;;16.30;93.60;;;;;;5013628;28;20213;-50
2021/05/29 01:50:49;;;;;;;6.80;4.32;;;16.00;93.80;;;;;;5014900;28;20045;-51
2021/05/29 01:53:19;;;;;;;7.28;3.95;;;15.80;93.80;;;;;;5014629;28;20084;-51
2021/05/29 01:55:48;;;;;;;11.75;4.72;;;15.70;94.60;;;;;;5014691;28;20052;-51
2021/05/29 01:58:17;;;;;;;8.95;3.65;;;15.50;94.50;;;;;;5014273;28;20064;-53
2021/05/29 02:00:44;;;;;;;8.27;3.50;;;15.40;94.40;;;;;;5014234;28;20109;-50
2021/05/29 02:03:12;;;;;;;9.23;3.70;;;15.40;94.50;;;;;;5014431;28;20041;-49
2021/05/29 02:05:40;;;;;;;6.93;3.83;;;15.40;95.50;;;;;;5014451;28;20029;-48
2021/05/29 02:08:09;;;;;;;5.97;3.78;;;15.30;95.20;;;;;;5014416;28;20028;-53
2021/05/29 02:10:39;;;;;;;9.27;4.07;;;15.50;95.10;;;;;;5014707;28;20026;-52
2021/05/29 02:13:12;;;;;;;10.95;4.38;;;15.80;94.40;;;;;;5014602;28;20574;-52
2021/05/29 02:15:41;;;;;;;9.68;4.40;;;16.20;94.60;;;;;;5014381;28;20034;-53
2021/05/29 02:18:11;;;;;;;7.22;3.75;;;16.10;93.90;;;;;;5014082;28;20450;-52
2021/05/29 02:21:01;;;;;;;7.07;3.33;;;15.70;94.10;;;;;;4996462;28;20045;-53
2021/05/29 02:23:30;;;;;;;6.40;3.77;;;15.50;94.30;;;;;;5014221;28;20022;-51
2021/05/29 02:26:02;;;;;;;8.52;3.88;;;15.50;94.40;;;;;;5014139;28;20052;-55
2021/05/29 02:28:31;;;;;;;9.30;3.78;;;15.60;94.60;;;;;;4996522;28;20029;-55
2021/05/29 02:30:58;;;;;;;7.30;4.00;;;15.70;94.50;;;;;;5013906;28;20030;-54
2021/05/29 02:33:26;;;;;;;8.45;3.75;;;15.70;95.00;;;;;;5013732;28;20418;-51
2021/05/29 02:35:54;;;;;;;7.22;3.90;;;15.80;94.60;;;;;;5013728;28;20040;-52
2021/05/29 02:38:21;;;;;;;13.40;4.78;;;15.90;94.50;;;;;;5013597;28;20105;-50
2021/05/29 02:40:49;;;;;;;8.15;4.00;;;15.90;94.20;;;;;;5013380;28;20030;-49
2021/05/29 02:43:16;;;;;;;6.65;3.83;;;15.80;94.20;;;;;;5013709;28;20022;-52
2021/05/29 02:45:44;;;;;;;7.97;3.80;;;15.50;94.70;;;;;;5013577;28;20029;-54
2021/05/29 02:48:13;;;;;;;5.55;3.15;;;15.30;94.70;;;;;;5013601;28;20387;-54
2021/05/29 02:50:42;;;;;;;6.57;3.55;;;15.50;94.70;;;;;;5013444;28;20037;-53
2021/05/29 02:53:11;;;;;;;10.93;4.97;;;15.50;94.60;;;;;;5013500;28;20030;-55
2021/05/29 02:55:39;;;;;;;8.43;4.43;;;15.30;94.80;;;;;;5013439;28;20030;-55
2021/05/29 02:58:08;;;;;;;8.80;4.05;;;15.50;95.00;;;;;;5013187;28;20105;-56
2021/05/29 03:00:37;;;;;;;5.30;3.75;;;15.40;94.60;;;;;;5012685;28;20025;-52
2021/05/29 03:03:06;;;;;;;11.35;4.50;;;15.20;94.80;;;;;;5013390;28;20018;-55
2021/05/29 03:05:36;;;;;;;10.77;4.00;;;15.10;94.90;;;;;;5013488;28;20022;-54
2021/05/29 03:08:04;;;;;;;7.63;3.72;;;15.00;95.20;;;;;;5013168;28;20494;-52
2021/05/29 03:10:32;;;;;;;10.05;4.00;;;15.20;95.80;;;;;;5013451;28;20030;-53
2021/05/29 03:13:00;;;;;;;6.90;3.92;;;15.20;95.10;;;;;;5013097;28;20164;-52
2021/05/29 03:15:28;;;;;;;8.63;4.07;;;15.20;95.30;;;;;;5013131;28;20076;-51
2021/05/29 03:17:59;;;;;;;9.38;4.75;;;15.30;95.60;;;;;;4995642;28;20077;-55
2021/05/29 03:20:29;;;;;;;9.95;4.13;;;15.20;95.30;;;;;;5012698;28;20104;-55
2021/05/29 03:22:57;;;;;;;7.97;4.07;;;15.10;95.50;;;;;;5012758;28;20462;-56
2021/05/29 03:25:25;;;;;;;8.30;4.05;;;15.10;95.60;;;;;;5012812;28;20026;-53
2021/05/29 03:27:53;;;;;;;7.15;4.20;;;15.00;95.50;;;;;;5012934;28;20022;-53
2021/05/29 03:30:24;;;;;;;5.43;3.85;;;14.90;95.70;;;;;;5012780;28;20491;-56
2021/05/29 03:32:51;;;;;;;;;;;15.00;96.20;;;;;;5013105;28;20026;-53
2021/05/29 03:35:18;;;;;;;10.20;4.43;;;14.90;95.90;;;;;;5013022;28;20365;-56
2021/05/29 03:37:46;;;;;;;9.60;4.22;;;14.90;96.20;;;;;;5012804;28;20391;-51
2021/05/29 03:40:16;;;;;;;11.65;4.53;;;15.10;96.30;;;;;;5012560;28;20014;-54
2021/05/29 03:42:44;;;;;;;10.60;5.50;;;15.20;96.20;;;;;;5012606;28;20061;-54
2021/05/29 03:45:16;;;;;;;8.68;4.50;;;15.30;96.00;;;;;;5012508;28;20034;-54
2021/05/29 03:47:48;;;;;;;6.43;3.97;;;15.30;95.90;;;;;;5012851;28;20022;-52
2021/05/29 03:50:25;;;;;;;7.63;4.38;;;15.10;95.50;;;;;;5012739;28;20060;-58
2021/05/29 03:52:53;;;;;;;4.75;4.18;;;15.20;96.50;;;;;;5012823;28;20394;-55
2021/05/29 03:55:22;;;;;;;8.50;4.55;;;15.10;95.70;;;;;;5012705;28;20108;-57
2021/05/29 03:57:51;;;;;;;8.68;4.10;;;15.10;96.00;;;;;;5012645;28;20403;-56
2021/05/29 04:00:21;;;;;;;7.05;4.00;;;15.20;96.30;;;;;;5012592;28;20109;-57
2021/05/29 04:02:50;;;;;;;6.18;3.70;;;15.30;96.00;;;;;;5012506;28;20022;-56
2021/05/29 04:05:18;;;;;;;11.13;5.00;;;15.30;95.90;;;;;;5012904;28;20135;-53
2021/05/29 04:07:46;;;;;;;6.78;3.33;;;15.10;95.60;;;;;;5012594;28;20017;-55
2021/05/29 04:10:28;;;;;;;7.57;3.90;;;15.10;96.00;;;;;;5012878;28;20140;-56
2021/05/29 04:12:56;;;;;;;7.28;3.83;;;15.00;96.30;;;;;;5015537;28;20033;-57
2021/05/29 04:15:24;;;;;;;7.55;3.85;;;15.00;95.90;;;;;;5016460;28;20036;-54
2021/05/29 04:17:52;;;;;;;6.15;4.00;;;14.90;96.00;;;;;;5016576;28;20057;-55
2021/05/29 04:20:23;;;;;;;6.88;3.63;;;15.00;96.40;;;;;;5016435;28;20113;-52
2021/05/29 04:22:50;;;;;;;;;;;14.90;96.30;;;;;;5016845;28;20501;-52
2021/05/29 04:25:23;;;;;;;17.60;4.65;;;14.90;96.10;;;;;;5016604;28;19906;-52
2021/05/29 04:27:51;;;;;;;10.27;5.35;;;14.90;96.40;;;;;;5016122;28;20545;-53
2021/05/29 04:30:21;;;;;;;7.65;4.53;;;14.90;96.20;;;;;;5016493;28;20026;-54
2021/05/29 04:32:48;;;;;;;;;;;14.90;96.00;;;;;;5016755;28;20029;-55
2021/05/29 04:35:17;;;;;;;5.65;3.42;;;14.80;96.10;;;;;;5016351;28;19909;-52
2021/05/29 04:37:46;;;;;;;5.22;3.38;;;14.70;95.70;;;;;;5016161;28;20097;-52
2021/05/29 04:40:14;;;;;;;10.00;4.30;;;14.70;95.90;;;;;;5016229;28;20386;-51
2021/05/29 04:42:42;;;;;;;6.40;3.30;;;14.60;96.20;;;;;;5015959;28;20026;-52
2021/05/29 04:45:12;;;;;;;4.28;3.45;;;14.70;96.20;;;;;;5015919;28;20033;-55
2021/05/29 04:47:40;;;;;;;6.95;3.72;;;14.70;96.70;;;;;;5016116;28;20022;-54
2021/05/29 04:50:10;;;;;;;7.97;3.78;;;14.70;96.20;;;;;;5015831;28;20026;-52
2021/05/29 04:52:38;;;;;;;8.90;3.90;;;14.70;96.20;;;;;;5016042;28;20028;-50
2021/05/29 04:55:09;;;;;;;8.68;3.95;;;14.80;96.00;;;;;;5015935;28;20030;-50
2021/05/29 04:57:36;;;;;;;6.25;3.72;;;14.70;96.30;;;;;;5015917;28;20071;-53
2021/05/29 05:00:06;;;;;;;8.43;3.60;;;14.70;96.30;;;;;;5015794;28;20046;-53
2021/05/29 05:02:37;;;;;;;7.68;3.60;;;14.80;96.60;;;;;;5014095;28;20021;-55
2021/05/29 05:05:05;;;;;;;5.85;3.50;;;14.80;96.10;;;;;;5015793;28;20495;-53
2021/05/29 05:07:33;;;;;;;6.15;3.70;;;14.70;96.40;;;;;;5016090;28;20021;-53
2021/05/29 05:10:00;;;;;;;6.65;4.03;;;14.80;96.20;;;;;;5015564;28;20029;-51
2021/05/29 05:12:28;;;;;;;6.85;3.75;;;14.80;96.70;;;;;;5015574;28;20061;-51
2021/05/29 05:14:55;;;;;;;11.57;4.63;;;14.80;96.20;;;;;;5015616;28;20045;-51
2021/05/29 05:17:23;;;;;;;11.88;4.15;;;14.80;96.60;;;;;;5015610;28;20471;-51
2021/05/29 05:19:50;;;;;;;4.85;3.90;;;14.80;96.10;;;;;;5015133;28;20081;-53
2021/05/29 05:22:17;;;;;;;4.50;3.28;;;14.80;96.50;;;;;;5014940;28;20050;-53
2021/05/29 05:24:44;;;;;;;10.25;4.30;;;14.70;96.40;;;;;;5015449;28;20393;-53
2021/05/29 05:27:12;;;;;;;5.50;3.33;;;14.50;96.50;;;;;;5015294;28;20022;-53
2021/05/29 05:29:39;;;;;;;7.57;3.35;;;14.40;96.70;;;;;;5015084;28;20060;-52
2021/05/29 05:32:08;;;;;;;4.47;3.00;;;14.40;96.60;;;;;;5015108;28;20128;-49
2021/05/29 05:34:35;;;;;;;6.05;2.90;;;14.40;97.20;;;;;;5015046;28;20474;-50
2021/05/29 05:37:03;;;;;;;7.65;3.17;;;14.30;97.20;;;;;;5015258;28;20014;-55
2021/05/29 05:39:30;;;;;;;6.93;2.80;;;14.30;96.50;;;;;;5014826;28;20105;-54
2021/05/29 05:41:57;;;;;;;4.88;3.38;;;14.30;97.20;;;;;;5014903;28;20451;-55
2021/05/29 05:44:25;;;;;;;5.90;3.40;;;14.30;96.80;;;;;;5014808;28;20053;-55
2021/05/29 05:46:52;;;;;;;7.20;3.60;;;14.30;96.80;;;;;;4997515;28;20098;-51
2021/05/29 05:49:20;;;;;;;4.32;3.55;;;14.30;97.10;;;;;;5014927;28;20033;-49
2021/05/29 05:51:47;;;;;;;5.30;3.50;;;14.30;96.70;;;;;;5014901;28;20102;-52
2021/05/29 05:54:14;;;;;;;5.78;3.40;;;14.20;97.00;;;;;;5014816;28;20056;-48
2021/05/29 05:56:41;;;;;;;5.53;3.30;;;14.10;97.00;;;;;;5014776;28;20101;-52
2021/05/29 05:59:09;;;;;;;6.80;3.50;;;14.10;97.30;;;;;;5014485;28;20128;-50
2021/05/29 06:01:38;;;;;;;6.22;3.47;;;14.00;97.40;;;;;;5014580;28;20087;-52
2021/05/29 06:04:06;;;;;;;7.95;3.47;;;14.00;97.70;;;;;;5014781;28;20026;-53
2021/05/29 06:06:33;;;;;;;5.97;3.90;;;13.90;97.90;;;;;;5014478;28;20034;-52
2021/05/29 06:09:00;;;;;;;7.25;4.30;;;13.90;97.90;;;;;;5014592;28;20053;-55
2021/05/29 06:11:28;;;;;;;7.57;4.03;;;14.00;97.60;;;;;;5014710;28;20419;-58
2021/05/29 06:19:21;;;;;;;4.45;3.75;;;14.00;97.60;;;;;;5014346;28;20025;-56
2021/05/29 06:21:52;;;;;;;7.97;4.18;;;14.00;98.10;;;;;;5014081;28;20112;-54
2021/05/29 06:24:30;;;;;;;9.27;3.85;;;14.00;97.90;;;;;;5013846;28;20026;-55
2021/05/29 06:26:57;;;;;;;6.45;3.53;;;14.00;98.30;;;;;;5014308;28;20030;-54
2021/05/29 06:29:25;;;;;;;5.35;3.83;;;13.90;97.70;;;;;;5014101;28;20076;-53
2021/05/29 06:31:53;;;;;;;5.43;3.50;;;13.90;97.90;;;;;;5013787;28;20032;-53
2021/05/29 06:34:21;;;;;;;6.47;3.30;;;13.90;98.00;;;;;;5013354;28;20049;-50
2021/05/29 06:36:50;;;;;;;6.22;3.20;;;13.80;98.00;;;;;;5014193;28;20044;-55
2021/05/29 06:39:18;;;;;;;4.30;3.13;;;13.80;97.80;;;;;;5013902;28;20026;-53
2021/05/29 06:41:46;;;;;;;5.35;3.40;;;13.80;98.00;;;;;;5014199;28;20030;-53
2021/05/29 06:44:14;;;;;;;5.15;3.80;;;13.80;98.20;;;;;;5014012;28;20060;-55
2021/05/29 06:46:42;;;;;;;6.68;3.95;;;13.70;98.50;;;;;;5013882;28;20071;-52
2021/05/29 06:49:10;;;;;;;5.72;3.40;;;13.70;98.30;;;;;;5013656;28;20026;-56
2021/05/29 06:59:31;;;;;;;5.55;3.55;;;13.70;98.80;;;;;;5013516;28;20137;-56
2021/05/29 07:01:59;;;;;;;4.35;3.40;;;13.70;98.60;;;;;;5013562;28;20111;-54
2021/05/29 07:04:26;;;;;;;6.82;3.50;;;13.70;98.40;;;;;;5013519;28;20062;-55
2021/05/29 07:06:54;;;;;;;6.57;4.05;;;13.70;98.70;;;;;;5013041;28;20053;-54
2021/05/29 07:09:21;;;;;;;6.40;3.28;;;13.70;98.60;;;;;;5013296;28;20022;-55
2021/05/29 07:11:49;;;;;;;4.93;3.47;;;13.70;98.60;;;;;;5013461;28;20100;-57
2021/05/29 07:14:16;;;;;;;6.30;3.72;;;13.70;98.80;;;;;;5013129;28;20057;-57
2021/05/29 07:16:45;;;;;;;8.25;4.68;;;13.70;98.80;;;;;;5013433;28;20018;-57
2021/05/29 07:19:12;;;;;;;4.65;3.75;;;13.70;98.70;;;;;;5013015;28;20034;-59
2021/05/29 07:21:39;;;;;;;5.22;3.50;;;13.70;98.70;;;;;;5013404;28;20025;-57
2021/05/29 07:24:07;;;;;;;8.88;3.80;;;13.70;98.60;;;;;;5013430;28;20470;-56
2021/05/29 07:26:35;;;;;;;6.88;3.78;;;13.60;99.30;;;;;;5013280;28;20029;-56
2021/05/29 07:29:03;;;;;;;5.40;4.05;;;13.60;99.10;;;;;;5013538;28;20025;-57
2021/05/29 07:31:30;;;;;;;6.35;3.75;;;13.60;99.00;;;;;;5013081;28;20088;-57
2021/05/29 07:33:58;;;;;;;4.53;3.75;;;13.60;98.90;;;;;;5013359;28;20053;-58
2021/05/29 07:36:25;;;;;;;4.85;3.47;;;13.60;99.30;;;;;;5013210;28;20030;-56
2021/05/29 07:38:53;;;;;;;6.03;3.85;;;13.60;99.10;;;;;;4995559;28;20065;-55
2021/05/29 07:41:21;;;;;;;8.02;4.00;;;13.60;99.20;;;;;;5013127;28;20030;-57
2021/05/29 07:43:49;;;;;;;7.10;4.75;;;13.50;99.40;;;;;;5012960;28;20030;-58
2021/05/29 07:46:18;;;;;;;6.68;4.00;;;13.60;99.30;;;;;;5015158;28;20068;-56
2021/05/29 07:48:47;;;;;;;5.93;3.80;;;13.50;98.90;;;;;;5016957;28;20050;-56
2021/05/29 07:51:15;;;;;;;12.77;10.02;;;13.50;99.20;;;;;;5017345;28;20075;-55
2021/05/29 07:53:43;;;;;;;35.17;27.38;;;13.60;99.00;;;;;;5016634;28;20483;-56
2021/05/29 07:56:13;;;;;;;6.43;4.90;;;13.50;99.00;;;;;;5017010;28;20101;-54
2021/05/29 07:58:42;;;;;;;5.95;4.60;;;13.50;98.80;;;;;;4998713;28;20418;-55
2021/05/29 08:01:10;;;;;;;12.05;7.25;;;13.60;98.80;;;;;;5016529;28;20093;-56
2021/05/29 08:03:38;;;;;;;7.85;3.70;;;13.50;98.90;;;;;;5016662;28;20022;-55
2021/05/29 08:06:25;;;;;;;8.93;6.43;;;13.50;98.80;;;;;;5016311;28;20026;-55
2021/05/29 08:08:53;;;;;;;11.68;9.43;;;13.40;99.20;;;;;;5016378;28;20101;-56
2021/05/29 08:11:22;;;;;;;6.68;4.93;;;13.40;99.00;;;;;;5016529;28;20144;-56
2021/05/29 08:13:51;;;;;;;5.10;4.35;;;13.40;99.00;;;;;;5016237;28;20038;-56
2021/05/29 08:16:19;;;;;;;5.22;4.70;;;13.50;98.80;;;;;;5016286;28;20526;-57
2021/05/29 08:18:47;;;;;;;6.47;3.92;;;13.50;99.00;;;;;;5016169;28;20455;-55
2021/05/29 08:21:14;;;;;;;6.88;3.55;;;13.50;98.80;;;;;;5016430;28;20022;-57
2021/05/29 08:23:42;;;;;;;6.68;4.30;;;13.50;99.20;;;;;;5016012;28;20021;-57
2021/05/29 08:26:09;;;;;;;9.68;4.70;;;13.50;98.90;;;;;;5016369;28;20424;-57
2021/05/29 08:28:42;;;;;;;7.20;3.25;;;13.50;98.80;;;;;;5016125;28;20022;-54
2021/05/29 08:31:10;;;;;;;5.85;4.60;;;13.50;98.90;;;;;;5015964;28;20030;-57
2021/05/29 08:33:40;;;;;;;5.32;3.60;;;13.50;99.10;;;;;;5016168;28;20022;-55
2021/05/29 08:36:10;;;;;;;8.02;4.50;;;13.50;98.90;;;;;;5015943;28;20532;-57
2021/05/29 08:38:38;;;;;;;8.52;3.80;;;13.50;99.20;;;;;;4998358;28;20482;-57
2021/05/29 08:41:06;;;;;;;8.82;4.68;;;13.50;99.50;;;;;;5015833;28;20029;-55
2021/05/29 08:43:34;;;;;;;5.78;3.90;;;13.50;98.90;;;;;;5015677;28;20033;-54
2021/05/29 08:46:02;;;;;;;6.93;4.50;;;13.50;99.00;;;;;;5015877;28;20021;-56
2021/05/29 08:48:29;;;;;;;5.78;4.80;;;13.40;99.40;;;;;;5015628;28;20112;-56
2021/05/29 08:51:13;;;;;;;6.57;4.25;;;13.40;99.10;;;;;;5015374;28;20432;-55
2021/05/29 08:53:45;;;;;;;5.03;3.97;;;13.40;99.20;;;;;;5015989;28;20126;-56
2021/05/29 08:56:13;;;;;;;7.35;4.10;;;13.40;99.20;;;;;;5015884;28;20034;-56
2021/05/29 08:58:41;;;;;;;6.43;4.00;;;13.40;99.00;;;;;;5014642;28;20046;-56
2021/05/29 09:01:10;;;;;;;5.35;3.60;;;13.40;99.10;;;;;;5015548;28;20037;-53
2021/05/29 09:03:48;;;;;;;6.28;4.65;;;13.40;99.30;;;;;;5015897;28;20099;-54
2021/05/29 09:06:19;;;;;;;5.38;4.28;;;13.40;99.40;;;;;;5015351;28;20087;-53
2021/05/29 09:08:51;;;;;;;5.50;4.40;;;13.40;99.30;;;;;;5015497;28;20026;-56
2021/05/29 09:11:52;;;;;;;9.07;5.38;;;13.40;99.30;;;;;;5015218;28;20028;-56
2021/05/29 09:14:28;;;;;;;6.45;4.20;;;13.40;99.10;;;;;;5015397;28;20128;-56
2021/05/29 09:17:04;;;;;;;6.75;4.10;;;13.40;99.10;;;;;;5015148;28;20060;-55
2021/05/29 09:19:56;;;;;;;5.57;4.13;;;13.40;99.10;;;;;;5014848;28;20038;-53
2021/05/29 09:22:28;;;;;;;9.25;5.25;;;13.30;99.20;;;;;;5015010;28;20025;-55
2021/05/29 09:24:59;;;;;;;6.82;4.28;;;13.30;99.70;;;;;;5014921;28;20076;-57
2021/05/29 09:27:27;;;;;;;6.50;3.72;;;13.30;99.20;;;;;;5015098;28;20018;-58
2021/05/29 09:29:54;;;;;;;4.18;3.40;;;13.30;99.20;;;;;;5015140;28;20018;-57
2021/05/29 09:32:22;;;;;;;7.88;4.25;;;13.30;99.30;;;;;;5015098;28;20022;-58
2021/05/29 09:34:52;;;;;;;7.75;5.35;;;13.30;99.10;;;;;;5015008;28;20115;-55
2021/05/29 09:37:26;;;;;;;;;;;13.30;99.10;;;;;;5015378;28;20030;-57
2021/05/29 09:40:01;;;;;;;7.00;3.80;;;13.30;99.00;;;;;;5014919;28;19905;-51
2021/05/29 09:42:37;;;;;;;4.57;3.80;;;13.30;98.90;;;;;;5014833;28;20018;-56
2021/05/29 09:45:28;;;;;;;5.85;3.30;;;13.30;99.00;;;;;;5014856;28;20483;-55
2021/05/29 09:48:31;;;;;;;5.95;2.92;;;13.20;99.20;;;;;;5014714;28;20026;-57
2021/05/29 09:51:09;;;;;;;6.32;3.83;;;13.20;98.90;;;;;;4935040;29;20040;-58
2021/05/29 09:53:49;;;;;;;6.68;4.05;;;13.20;99.00;;;;;;5006360;28;20405;-59
2021/05/29 09:56:31;;;;;;;7.13;4.15;;;13.20;98.90;;;;;;5014614;28;20030;-58
2021/05/29 09:59:20;;;;;;;7.75;4.05;;;13.20;99.20;;;;;;5014370;28;20125;-56
2021/05/29 10:01:50;;;;;;;5.80;3.45;;;13.10;98.90;;;;;;5014335;28;20022;-58
2021/05/29 10:04:23;;;;;;;5.97;3.90;;;13.10;99.00;;;;;;5014418;28;20487;-58
2021/05/29 10:07:01;;;;;;;4.43;3.50;;;13.10;98.80;;;;;;5014625;28;20088;-58
2021/05/29 10:09:28;;;;;;;7.55;4.22;;;13.10;98.80;;;;;;5013390;28;20109;-56
2021/05/29 10:11:57;;;;;;;7.00;4.15;;;13.10;99.40;;;;;;5014381;28;20040;-56
2021/05/29 10:14:24;;;;;;;5.45;3.47;;;13.10;98.90;;;;;;5014179;28;20442;-57
2021/05/29 10:16:52;;;;;;;8.02;4.47;;;13.10;98.90;;;;;;5014198;28;20029;-58
2021/05/29 10:19:21;;;;;;;7.68;3.92;;;13.00;99.30;;;;;;5014027;28;20026;-57
2021/05/29 10:21:50;;;;;;;4.07;3.67;;;13.00;99.20;;;;;;5014319;28;20064;-58
2021/05/29 10:24:18;;;;;;;4.32;3.53;;;13.10;99.10;;;;;;4996289;28;20396;-56
2021/05/29 10:26:48;;;;;;;4.80;3.63;;;13.00;98.90;;;;;;5014188;28;20104;-57
2021/05/29 10:29:15;;;;;;;5.18;4.03;;;13.00;98.80;;;;;;5013723;28;20512;-57
2021/05/29 10:31:43;;;;;;;6.22;3.63;;;13.00;98.90;;;;;;5013811;28;20044;-58
2021/05/29 10:34:11;;;;;;;5.78;3.53;;;13.00;98.80;;;;;;5014171;28;20032;-56
2021/05/29 10:36:58;;;;;;;6.35;3.05;;;13.00;98.90;;;;;;5013998;28;20105;-57
2021/05/29 10:39:46;;;;;;;6.20;3.30;;;13.00;99.00;;;;;;5013939;28;20080;-57
2021/05/29 10:42:31;;;;;;;5.15;3.70;;;13.00;99.00;;;;;;5013467;28;20116;-56
2021/05/29 10:45:20;;;;;;;3.42;2.78;;;12.90;99.00;;;;;;5014086;28;20075;-57
2021/05/29 10:48:07;;;;;;;4.05;3.65;;;13.00;99.10;;;;;;5013756;28;20018;-56
2021/05/29 10:51:13;;;;;;;5.82;3.55;;;12.90;99.30;;;;;;5013806;28;20030;-58
2021/05/29 10:53:55;;;;;;;7.22;3.90;;;12.90;99.30;;;;;;5012348;28;20593;-55
2021/05/29 10:56:22;;;;;;;4.60;3.28;;;13.00;99.30;;;;;;5013477;28;20403;-55
2021/05/29 10:59:38;;;;;;;5.32;3.47;;;12.90;99.30;;;;;;5013293;28;20136;-55
2021/05/29 11:02:02;;;;;;;4.70;3.47;;;12.80;99.60;;;;;;5009297;28;20025;-56
2021/05/29 11:04:30;;;;;;;7.32;3.92;;;12.80;99.60;;;;;;5013319;28;20047;-55
2021/05/29 11:07:00;;;;;;;5.50;3.35;;;12.80;99.60;;;;;;5013263;28;20053;-57
2021/05/29 11:09:32;;;;;;;4.35;3.47;;;12.80;99.60;;;;;;5013248;28;20025;-57
2021/05/29 11:12:00;;;;;;;4.88;4.35;;;12.80;99.60;;;;;;5013257;28;20494;-57
2021/05/29 11:14:48;;;;;;;7.43;4.60;;;12.80;99.80;;;;;;5013410;28;20061;-55
2021/05/29 11:17:18;;;;;;;5.88;4.10;;;12.80;99.90;;;;;;5013498;28;20496;-54
2021/05/29 11:20:01;;;;;;;4.82;3.25;;;12.80;99.50;;;;;;5012811;28;20034;-56
2021/05/29 11:22:49;;;;;;;7.00;3.85;;;12.80;99.50;;;;;;5013190;28;20486;-56
2021/05/29 11:25:23;;;;;;;8.00;4.00;;;12.80;99.50;;;;;;5013039;28;20029;-58
2021/05/29 11:27:51;;;;;;;4.68;3.88;;;12.80;99.90;;;;;;5013009;28;20053;-55
2021/05/29 11:30:32;;;;;;;5.55;3.50;;;12.90;99.50;;;;;;4995584;28;20372;-55
2021/05/29 11:33:18;;;;;;;5.40;3.60;;;12.80;99.50;;;;;;5013272;28;20033;-57
2021/05/29 11:35:48;;;;;;;6.93;3.70;;;12.80;99.40;;;;;;5013026;28;20036;-54
2021/05/29 11:38:34;;;;;;;7.13;4.10;;;12.70;99.20;;;;;;5012794;28;20541;-58
2021/05/29 11:41:16;;;;;;;6.78;4.20;;;12.80;99.40;;;;;;5013097;28;20271;-57
2021/05/29 11:43:45;;;;;;;4.60;3.50;;;12.80;99.20;;;;;;5012810;28;20092;-58
2021/05/29 11:46:20;;;;;;;4.53;3.97;;;12.70;99.20;;;;;;5013003;28;20049;-57
2021/05/29 11:49:07;;;;;;;5.00;3.63;;;12.70;99.30;;;;;;5012724;28;20026;-56
2021/05/29 11:51:37;;;;;;;4.28;3.85;;;12.70;99.20;;;;;;5012914;28;20030;-57
2021/05/29 11:54:14;;;;;;;5.70;4.03;;;12.70;99.30;;;;;;5012670;28;20113;-56
2021/05/29 11:56:47;;;;;;;5.57;3.80;;;12.70;99.40;;;;;;5012676;28;20071;-54
2021/05/29 11:59:16;;;;;;;5.50;3.80;;;12.70;99.40;;;;;;5012533;28;20084;-59
2021/05/29 12:01:53;;;;;;;4.65;3.83;;;12.70;99.50;;;;;;5012815;28;20477;-57
2021/05/29 12:04:26;;;;;;;6.30;4.68;;;12.70;99.50;;;;;;5012556;28;20026;-57
2021/05/29 12:07:02;;;;;;;7.57;3.85;;;12.70;99.40;;;;;;5012641;28;20025;-56
2021/05/29 12:09:41;;;;;;;4.70;3.55;;;12.70;99.20;;;;;;5012931;28;20073;-58
2021/05/29 12:15:31;;;;;;;5.18;4.30;;;12.70;99.50;;;;;;5013067;28;20083;-54
2021/05/29 12:18:03;;;;;;;4.47;3.03;;;12.70;99.60;;;;;;5012732;28;20391;-56
2021/05/29 12:20:30;;;;;;;4.82;3.83;;;12.60;99.30;;;;;;5012572;28;20030;-55
2021/05/29 12:23:04;;;;;;;5.38;4.10;;;12.60;99.20;;;;;;5012473;28;20391;-51
2021/05/29 12:25:32;;;;;;;8.05;4.20;;;12.60;99.60;;;;;;5012422;28;20026;-56
2021/05/29 12:27:59;;;;;;;6.13;4.30;;;12.60;99.90;;;;;;5012502;28;20390;-56
2021/05/29 12:30:27;;;;;;;5.78;3.92;;;12.60;99.90;;;;;;5012509;28;20136;-56
2021/05/29 12:32:55;;;;;;;6.32;4.00;;;12.60;99.90;;;;;;5013924;28;20033;-56
2021/05/29 12:35:48;;;;;;;7.57;4.47;;;12.50;99.90;;;;;;5016268;28;20029;-56
2021/05/29 12:38:21;;;;;;;5.18;3.72;;;12.50;99.90;;;;;;5013698;28;20065;-55
2021/05/29 12:41:11;;;;;;;6.22;4.25;;;12.50;99.90;;;;;;5015904;28;20022;-54
2021/05/29 12:43:41;;;;;;;4.75;3.90;;;12.50;99.90;;;;;;5016283;28;20025;-51
2021/05/29 12:46:28;;;;;;;5.65;4.35;;;12.30;99.90;;;;;;5015833;28;20375;-56
2021/05/29 12:49:09;;;;;;;5.10;3.72;;;12.30;99.90;;;;;;5015782;28;20025;-55
2021/05/29 12:51:44;;;;;;;5.45;4.32;;;12.30;99.90;;;;;;5015848;28;20165;-55
2021/05/29 12:54:13;;;;;;;4.60;4.20;;;12.40;99.90;;;;;;5015928;28;20109;-56
2021/05/29 12:56:58;;;;;;;7.80;4.40;;;12.30;99.90;;;;;;5015779;28;20041;-57
2021/05/29 12:59:30;;;;;;;4.15;3.85;;;12.40;99.90;;;;;;5015631;28;20042;-56
2021/05/29 13:07:37;;;;;;;4.93;4.28;;;12.40;99.70;;;;;;5015927;28;20033;-56
2021/05/29 13:12:37;;;;;;;4.40;4.00;;;12.40;99.70;;;;;;5015793;28;20018;-51
2021/05/29 13:15:19;;;;;;;4.45;4.15;;;12.40;99.70;;;;;;5015731;28;20071;-56
2021/05/29 13:17:46;;;;;;;5.40;4.03;;;12.40;99.90;;;;;;5015715;28;20080;-55
2021/05/29 13:20:17;;;;;;;5.10;3.75;;;12.40;99.60;;;;;;5015442;28;20025;-53
2021/05/29 13:22:45;;;;;;;4.13;3.67;;;12.30;99.50;;;;;;5015281;28;20030;-56
2021/05/29 13:25:19;;;;;;;4.55;3.50;;;12.40;99.80;;;;;;5015307;28;20026;-56
2021/05/29 13:27:53;;;;;;;3.92;2.95;;;12.30;99.90;;;;;;5015444;28;20022;-56
2021/05/29 13:30:26;;;;;;;4.57;3.03;;;12.30;99.20;;;;;;5015228;28;20490;-56
2021/05/29 13:33:08;;;;;;;6.38;3.00;;;12.30;99.40;;;;;;5015217;28;20029;-57
2021/05/29 13:35:36;;;;;;;5.18;3.00;;;12.30;99.40;;;;;;5015196;28;20033;-57